Pagrindinis puslapis
METAR-TAF:

METAR-TAF

Oro uostai :

Oro pajėgų bazė

Santosas, San Paulas, Brazilija

platuma: 23-56S, ilguma: 046-18W, Aukštis: 3 m

Dabartinis oras

Ataskaita buvo paskelbta 36 minutes, ne 20:00 UTC
Vėjas 6 kt iš Vakarų/Pietvakarių
Temperatūra 29°C
Drėgmė 74%
Slėgis 1012 hPa
Matomumas 10 km arba daugiau
Išsisklaidę debesys ne aukštis 2000 ft
Mažai debesys ne aukštis 2500 ft, aukštai iškilę kamuoliniai debesys.
Su prošvaistėmis ne aukštis 7100 ft

METAR: SBST 152000Z 24006KT 9999 SCT020 FEW025TCU BKN071 29/24 Q1012

Laikas: 17:36 (20:36 UTC)


TAF: trūkstamas

Orai ataskaitas ir orų prognozės (METAR, TAF).

turimą stotys yra geltonos ir raudonos taškus žemėlapyje.

Perkelti pele per norėdami pamatyti stoties vardą.

Tada spustelėkite, norėdami matyti oro stebėjimo ir prognozės.

Norėdami pakeisti žemėlapį: spustelėkite ant žalios mygtukų su juodo kryžiaus žemyn,; žalią mygtuką su brūkšneliu, jei norite nutolinti; arba žalių rodyklių gretimoms žemėlapius.


METAR-TAF: